Terminal Aerodrome Forecast
Issued by NWS

Home | Current Version | Previous Version | Text Only | Print | Product List | Glossary On
Versions: 1 2 3 4 5 6 7 8 9 10 11 12 13
000
FTUS44 KSJT 030500
TAFBBD
TAF
KBBD 030520Z 0306/0406 15012KT P6SM SKC
     FM031200 16006KT 6SM BR BKN015
     FM031700 16013G20KT P6SM SCT250
     FM040200 15012KT P6SM BKN250=

USA.gov is the U.S. government's official web portal to all federal, state and local government web resources and services.